< < Back
Terminal Aerodrome Forecast


Current Version              Previous Versions:   1  2  3  4  5  6  7  8  9  

Terminal Aerodrome Forecast

853
FTUS42 KFFC 250932 AAB
TAFATL
TAF AMD
KATL 250932Z 2510/2612 16004KT P6SM SCT250
     FM251500 19006KT P6SM SCT050 BKN250
     FM260200 17004KT P6SM BKN250=



Latest METAR

119
SAUS70 KWBC 251300
MTRATL
METAR KATL 251252Z 20007KT 10SM FEW150 SCT200 SCT250 22/12 A3024 RMK AO2
SLP232 T02220122


USA.gov is the U.S. government's official web portal to all federal, state and local government web resources and services.